Provincetown II — WYQ8368 — position and weather

sailwx.info

Track history (hours):
 
Tides and Currents Weather Stations Pressure Air Temp Water Temp Dewpoint Dewpoint Depression Visibility Wind Speed Wind Dir Waves Ship Positions

Provincetown II

Owner: BAY STATE MARINE CORP, BOSTON, MA. More information available from US FCC via Universal Licensing System and Coast Guard Vessel Documentation Center.

Last reported at 2016-Jul-28 02:33 UTC. Time now 2016-Jul-28 06:40 UTC.
Position N 42°21' W 071°02'.

Length 64 m; draft 2 m.

Type: Passenger vessel. MMSI: 376325010.

Date/timePositionNaut miles runAvg speedWind from/ knotsBaromVisibWave heightAir tempDewpointWater temp
2016-Jul-28 02:33N 42°21' W 071°02'5 5.0
2016-Jul-28 01:29N 42°19' W 070°56'0 0.0
2016-Jul-28 00:32N 42°19' W 070°56'0 0.0
2016-Jul-27 23:32N 42°19' W 070°56'5 5.4
2016-Jul-27 22:33N 42°21' W 071°02'0 0.1
2016-Jul-27 21:31N 42°21' W 071°02'4 3.9
2016-Jul-27 20:33N 42°20' W 070°58'4 3.7
2016-Jul-27 19:31N 42°21' W 071°02'1 1.2
2016-Jul-27 18:34N 42°21' W 071°01'2 0.6
2016-Jul-27 15:12N 42°19' W 070°59'3 4.3
2016-Jul-27 14:31N 42°21' W 071°02'4 3.9
2016-Jul-27 13:33N 42°20' W 070°58'4 3.8
2016-Jul-27 12:33N 42°21' W 071°02'  
2016-Jul-24 23:05N 42°21' W 071°02'1 2.0
2016-Jul-24 22:33N 42°21' W 071°01'4 4.5
2016-Jul-24 21:34N 42°19' W 070°55'4 3.7
2016-Jul-24 20:33N 42°20' W 071°00'2 0.0
2016-Jul-23 00:15N 42°21' W 071°02'0 0.4
2016-Jul-22 23:26N 42°21' W 071°02'0 0.0
2016-Jul-22 22:32N 42°21' W 071°02'0 0.0
2016-Jul-22 21:26N 42°21' W 071°02'4 4.4
2016-Jul-22 20:34N 42°20' W 070°58'4 3.4
2016-Jul-22 19:27N 42°21' W 071°02'0 0.0
2016-Jul-22 18:32N 42°21' W 071°02'0 0.0
2016-Jul-22 17:32N 42°21' W 071°02'3 1.0
2016-Jul-22 14:34N 42°20' W 070°59'1 0.7
2016-Jul-22 13:31N 42°20' W 070°58'  
Track history (hours):
 
Tides and Currents Weather Stations Pressure Air Temp Water Temp Dewpoint Dewpoint Depression Visibility Wind Speed Wind Dir Waves Ship Positions

Provincetown II

Owner: BAY STATE MARINE CORP, BOSTON, MA. More information available from US FCC via Universal Licensing System and Coast Guard Vessel Documentation Center.

Last reported at 2016-Jul-28 02:33 UTC. Time now 2016-Jul-28 06:40 UTC.
Position N 42°21' W 071°02'.

Length 64 m; draft 2 m.

Type: Passenger vessel. MMSI: 376325010.

Date/timePositionNaut miles runAvg speedWind from/ knotsBaromVisibWave heightAir tempDewpointWater temp
2016-Jul-28 02:33N 42°21' W 071°02'5 5.0
2016-Jul-28 01:29N 42°19' W 070°56'0 0.0
2016-Jul-28 00:32N 42°19' W 070°56'0 0.0
2016-Jul-27 23:32N 42°19' W 070°56'5 5.4
2016-Jul-27 22:33N 42°21' W 071°02'0 0.1
2016-Jul-27 21:31N 42°21' W 071°02'4 3.9
2016-Jul-27 20:33N 42°20' W 070°58'4 3.7
2016-Jul-27 19:31N 42°21' W 071°02'1 1.2
2016-Jul-27 18:34N 42°21' W 071°01'2 0.6
2016-Jul-27 15:12N 42°19' W 070°59'3 4.3
2016-Jul-27 14:31N 42°21' W 071°02'4 3.9
2016-Jul-27 13:33N 42°20' W 070°58'4 3.8
2016-Jul-27 12:33N 42°21' W 071°02'  
2016-Jul-24 23:05N 42°21' W 071°02'1 2.0
2016-Jul-24 22:33N 42°21' W 071°01'4 4.5
2016-Jul-24 21:34N 42°19' W 070°55'4 3.7
2016-Jul-24 20:33N 42°20' W 071°00'2 0.0
2016-Jul-23 00:15N 42°21' W 071°02'0 0.4
2016-Jul-22 23:26N 42°21' W 071°02'0 0.0
2016-Jul-22 22:32N 42°21' W 071°02'0 0.0
2016-Jul-22 21:26N 42°21' W 071°02'4 4.4
2016-Jul-22 20:34N 42°20' W 070°58'4 3.4
2016-Jul-22 19:27N 42°21' W 071°02'0 0.0
2016-Jul-22 18:32N 42°21' W 071°02'0 0.0
2016-Jul-22 17:32N 42°21' W 071°02'3 1.0
2016-Jul-22 14:34N 42°20' W 070°59'1 0.7
2016-Jul-22 13:31N 42°20' W 070°58'  

Dump ship's entire track history